Terminal Aerodrome Forecast
Issued by NWS

Current Version | Previous Version | Text Only | Print | Product List | Glossary On
Versions: 1 2 3 4 5 6 7 8 9 10 11 12 13 14
000
FTUS43 KSGF 042320
TAFJLN
TAF
KJLN 042320Z 0500/0524 23009KT P6SM VCSH BKN050
     FM050300 13005KT P6SM OVC100
     FM051100 14008KT P6SM OVC040 PROB30 0511/0517 P6SM TSRA
      BKN050CB
     FM051700 20008KT P6SM VCTS OVC040CB=

USA.gov is the U.S. government's official web portal to all federal, state and local government web resources and services.